createdAt,value
2018-06-19T00:01:10.136Z,3.20
2018-06-19T00:03:37.433Z,3.13
2018-06-19T00:06:04.588Z,3.43
2018-06-19T00:08:31.779Z,3.23
2018-06-19T00:10:58.948Z,3.43
2018-06-19T00:13:26.086Z,3.53
2018-06-19T00:15:53.553Z,3.57
2018-06-19T00:18:24.285Z,3.27
2018-06-19T00:20:52.803Z,3.23
2018-06-19T00:23:20.044Z,3.53
2018-06-19T00:25:47.258Z,3.40
2018-06-19T00:28:14.612Z,3.70
2018-06-19T00:30:41.739Z,3.23
2018-06-19T00:33:08.920Z,3.70
2018-06-19T00:35:36.112Z,3.93
2018-06-19T00:38:03.337Z,3.77
2018-06-19T00:40:30.583Z,3.70
2018-06-19T00:42:58.061Z,3.97
2018-06-19T00:45:25.188Z,3.87
2018-06-19T00:47:52.637Z,3.70
2018-06-19T00:50:20.002Z,3.50
2018-06-19T00:52:47.318Z,3.60
2018-06-19T00:55:14.434Z,3.40
2018-06-19T00:57:41.909Z,3.97
2018-06-19T01:00:09.820Z,3.93
2018-06-19T01:02:36.980Z,3.90
2018-06-19T01:05:04.394Z,3.70
2018-06-19T01:07:31.499Z,3.57
2018-06-19T01:09:58.736Z,3.67
2018-06-19T01:12:26.020Z,4.30
2018-06-19T01:14:53.184Z,4.00
2018-06-19T01:17:20.536Z,3.73
2018-06-19T01:19:48.665Z,3.63
2018-06-19T01:22:15.819Z,3.63
2018-06-19T01:24:43.022Z,4.00
2018-06-19T01:27:10.201Z,3.80
2018-06-19T01:29:37.491Z,4.17
2018-06-19T01:32:04.607Z,4.10
2018-06-19T01:34:31.835Z,4.00
2018-06-19T01:36:58.959Z,4.10
2018-06-19T01:39:26.097Z,4.10
2018-06-19T01:41:53.433Z,4.57
2018-06-19T01:44:20.736Z,4.47
2018-06-19T01:46:47.934Z,4.33
2018-06-19T01:49:15.119Z,4.67
2018-06-19T01:51:42.243Z,4.77
2018-06-19T01:54:10.253Z,5.23
2018-06-19T01:56:37.462Z,4.40
2018-06-19T01:59:04.676Z,4.90
2018-06-19T02:01:31.850Z,4.63
2018-06-19T02:03:59.027Z,4.63
2018-06-19T02:06:26.304Z,4.80
2018-06-19T02:08:53.472Z,5.37
2018-06-19T02:11:20.712Z,4.73
2018-06-19T02:13:47.894Z,5.03
2018-06-19T02:16:15.069Z,4.90
2018-06-19T02:18:42.791Z,5.30
2018-06-19T02:21:09.929Z,4.73
2018-06-19T02:23:37.252Z,5.07
2018-06-19T02:26:04.485Z,5.30
2018-06-19T02:28:31.635Z,4.70
2018-06-19T02:30:58.945Z,4.73
2018-06-19T02:33:26.285Z,4.90
2018-06-19T02:35:53.597Z,5.30
2018-06-19T02:38:20.748Z,4.90
2018-06-19T02:40:47.980Z,5.20
2018-06-19T02:43:15.309Z,5.40
2018-06-19T02:45:42.461Z,4.83
2018-06-19T02:48:09.652Z,5.70
2018-06-19T02:50:36.956Z,5.20
2018-06-19T02:53:04.200Z,5.60
2018-06-19T02:55:32.794Z,5.03
2018-06-19T02:57:59.909Z,5.53
2018-06-19T03:00:27.157Z,5.83
2018-06-19T03:02:54.459Z,5.20
2018-06-19T03:05:21.630Z,5.57
2018-06-19T03:07:49.061Z,5.30
2018-06-19T03:10:16.245Z,5.77
2018-06-19T03:12:43.352Z,5.97
2018-06-19T03:15:10.565Z,5.60
2018-06-19T03:17:37.843Z,5.50
2018-06-19T03:20:05.108Z,5.90
2018-06-19T03:22:32.251Z,5.67
2018-06-19T03:24:59.574Z,5.27
2018-06-19T03:27:26.704Z,5.70
2018-06-19T03:29:53.860Z,5.00
2018-06-19T03:32:21.247Z,5.13
2018-06-19T03:34:48.341Z,5.03
2018-06-19T03:37:15.601Z,5.10
2018-06-19T03:39:43.131Z,5.20
2018-06-19T03:42:10.241Z,5.10
2018-06-19T03:44:37.597Z,5.30
2018-06-19T03:47:04.819Z,5.40
2018-06-19T03:49:31.961Z,4.80
2018-06-19T03:51:59.131Z,5.23
2018-06-19T03:54:26.314Z,5.50
2018-06-19T03:56:53.600Z,5.20
2018-06-19T03:59:20.738Z,5.53
2018-06-19T04:01:47.897Z,5.73
2018-06-19T04:04:16.680Z,5.10
2018-06-19T04:06:43.812Z,5.80
2018-06-19T04:09:11.535Z,5.60
2018-06-19T04:11:40.681Z,5.30
2018-06-19T04:14:07.892Z,5.67
2018-06-19T04:16:35.071Z,5.10
2018-06-19T04:19:02.263Z,5.77
2018-06-19T04:21:29.703Z,4.87
2018-06-19T04:23:57.181Z,5.50
2018-06-19T04:26:24.588Z,5.50
2018-06-19T04:28:51.735Z,5.80
2018-06-19T04:31:19.565Z,5.73
2018-06-19T04:33:46.896Z,5.50
2018-06-19T04:36:14.062Z,5.50
2018-06-19T04:38:41.554Z,5.70
2018-06-19T04:41:08.715Z,5.33
2018-06-19T04:43:35.867Z,5.37
2018-06-19T04:46:04.694Z,5.67
2018-06-19T04:48:32.016Z,5.87
2018-06-19T04:51:01.392Z,6.10
2018-06-19T04:53:30.096Z,5.93
2018-06-19T04:55:57.268Z,5.63
2018-06-19T04:58:24.551Z,5.83
2018-06-19T05:00:51.785Z,5.53
2018-06-19T05:03:19.020Z,5.93
2018-06-19T05:05:46.227Z,6.20
2018-06-19T05:08:13.827Z,5.60
2018-06-19T05:10:41.417Z,6.27
2018-06-19T05:13:08.551Z,5.30
2018-06-19T05:15:35.763Z,6.00
2018-06-19T05:18:02.905Z,5.87
2018-06-19T05:20:30.066Z,6.30
2018-06-19T05:22:57.207Z,5.90
2018-06-19T05:25:24.356Z,6.10
2018-06-19T05:27:51.859Z,5.93
2018-06-19T05:30:19.074Z,5.87
2018-06-19T05:32:46.200Z,6.30
2018-06-19T05:35:13.456Z,6.07
2018-06-19T05:37:40.795Z,5.80
2018-06-19T05:40:08.099Z,6.07
2018-06-19T05:42:35.276Z,6.70
2018-06-19T05:45:02.496Z,5.73
2018-06-19T05:47:29.644Z,5.67
2018-06-19T05:49:56.782Z,7.00
2018-06-19T05:52:23.918Z,6.30
2018-06-19T05:54:51.160Z,6.00
2018-06-19T05:57:18.368Z,6.70
2018-06-19T05:59:45.729Z,7.30
2018-06-19T06:02:12.995Z,7.50
2018-06-19T06:04:40.281Z,6.33
2018-06-19T06:07:07.579Z,7.37
2018-06-19T06:09:34.746Z,7.00
2018-06-19T06:12:02.004Z,7.50
2018-06-19T06:14:29.164Z,6.83
2018-06-19T06:16:56.456Z,7.53
2018-06-19T06:19:23.616Z,7.50
2018-06-19T06:21:50.828Z,7.30
2018-06-19T06:24:19.111Z,7.10
2018-06-19T06:26:46.248Z,8.00
2018-06-19T06:29:14.425Z,7.40
2018-06-19T06:31:41.558Z,7.87
2018-06-19T06:34:08.753Z,7.43
2018-06-19T06:36:36.045Z,7.60
2018-06-19T06:39:05.465Z,8.50
2018-06-19T06:41:32.617Z,8.70
2018-06-19T06:43:59.792Z,8.37
2018-06-19T06:46:26.916Z,8.10
2018-06-19T06:48:54.234Z,9.10
2018-06-19T06:51:21.464Z,7.73
2018-06-19T06:53:48.598Z,9.23
2018-06-19T06:56:15.774Z,8.87
2018-06-19T06:58:42.996Z,8.63
2018-06-19T07:01:10.208Z,7.60
2018-06-19T07:03:37.319Z,7.63
2018-06-19T07:06:04.525Z,8.70
2018-06-19T07:08:31.754Z,8.67
2018-06-19T07:10:59.053Z,8.77
2018-06-19T07:13:26.346Z,7.90
2018-06-19T07:15:53.537Z,9.17
2018-06-19T07:18:20.697Z,7.97
2018-06-19T07:20:47.954Z,7.87
2018-06-19T07:23:15.141Z,8.43
2018-06-19T07:25:42.348Z,8.33
2018-06-19T07:28:09.566Z,9.00
2018-06-19T07:30:36.719Z,7.73
2018-06-19T07:33:03.859Z,8.67
2018-06-19T07:35:31.053Z,7.70
2018-06-19T07:37:58.382Z,8.57
2018-06-19T07:40:25.537Z,7.90
2018-06-19T07:42:53.865Z,8.40
2018-06-19T07:45:21.043Z,7.60
2018-06-19T07:47:48.381Z,7.97
2018-06-19T07:50:15.717Z,6.93
2018-06-19T07:52:42.880Z,7.23
2018-06-19T07:55:10.032Z,7.67
2018-06-19T07:57:37.203Z,7.83
2018-06-19T08:00:04.375Z,6.77
2018-06-19T08:02:37.754Z,6.87
2018-06-19T08:05:04.954Z,7.80
2018-06-19T08:07:32.096Z,7.43
2018-06-19T08:09:59.273Z,6.30
2018-06-19T08:12:26.437Z,6.47
2018-06-19T08:14:53.646Z,6.80
2018-06-19T08:17:20.887Z,6.47
2018-06-19T08:19:48.487Z,5.60
2018-06-19T08:22:15.988Z,6.37
2018-06-19T08:24:46.080Z,5.97
2018-06-19T08:27:16.132Z,5.87
2018-06-19T08:29:45.587Z,6.30
2018-06-19T08:32:15.991Z,6.27
2018-06-19T08:34:43.244Z,7.50
2018-06-19T08:37:10.402Z,7.43
2018-06-19T08:39:37.755Z,6.30
2018-06-19T08:42:04.927Z,5.30
2018-06-19T08:44:32.189Z,5.60
2018-06-19T08:46:59.318Z,5.40
2018-06-19T08:49:26.452Z,6.40
2018-06-19T08:51:53.857Z,5.40
2018-06-19T08:54:21.245Z,5.50
2018-06-19T08:56:48.484Z,5.47
2018-06-19T08:59:16.047Z,5.40
2018-06-19T09:01:43.208Z,5.17
2018-06-19T09:04:10.487Z,4.77
2018-06-19T09:06:37.698Z,4.17
2018-06-19T09:09:07.459Z,4.27
2018-06-19T09:11:34.648Z,3.83
2018-06-19T09:14:01.869Z,3.80
2018-06-19T09:16:40.109Z,3.90
2018-06-19T09:19:12.418Z,3.77
2018-06-19T09:21:39.894Z,3.20
2018-06-19T09:24:07.894Z,3.30
2018-06-19T09:26:35.532Z,3.60
2018-06-19T09:29:03.256Z,3.10
2018-06-19T09:31:31.518Z,3.43
2018-06-19T09:34:00.614Z,2.77
2018-06-19T09:36:31.654Z,4.27
2018-06-19T09:38:59.207Z,3.80
2018-06-19T09:41:26.691Z,3.70
2018-06-19T09:43:53.936Z,3.60
2018-06-19T09:46:21.181Z,3.13
2018-06-19T09:48:48.408Z,3.70
2018-06-19T09:51:15.624Z,4.00
2018-06-19T09:53:42.836Z,3.40
2018-06-19T09:56:10.116Z,3.40
2018-06-19T09:58:37.287Z,2.97
2018-06-19T10:01:04.675Z,3.30
2018-06-19T10:03:32.681Z,3.50
2018-06-19T10:05:59.825Z,2.90
2018-06-19T10:08:26.983Z,3.10
2018-06-19T10:10:54.301Z,3.37
2018-06-19T10:13:21.459Z,2.90
2018-06-19T10:15:48.688Z,2.90
2018-06-19T10:18:15.969Z,3.10
2018-06-19T10:20:43.220Z,3.20
2018-06-19T10:23:12.081Z,3.57
2018-06-19T10:25:39.336Z,2.93
2018-06-19T10:28:06.606Z,2.77
2018-06-19T10:30:33.762Z,2.80
2018-06-19T10:33:01.179Z,2.77
2018-06-19T10:35:33.594Z,2.60
2018-06-19T10:38:00.785Z,2.90
2018-06-19T10:40:28.842Z,2.80
2018-06-19T10:42:56.209Z,2.57
2018-06-19T10:45:23.747Z,2.30
2018-06-19T10:47:51.041Z,2.70
2018-06-19T10:50:18.688Z,2.60
2018-06-19T10:52:46.135Z,2.83
2018-06-19T10:55:13.626Z,2.63
2018-06-19T10:57:40.993Z,2.60
2018-06-19T11:00:09.152Z,2.60
2018-06-19T11:02:36.315Z,2.70
2018-06-19T11:05:03.537Z,2.80
2018-06-19T11:07:31.320Z,2.47
2018-06-19T11:10:00.480Z,3.00
2018-06-19T11:12:33.352Z,2.53
2018-06-19T11:15:00.594Z,3.27
2018-06-19T11:17:28.917Z,2.73
2018-06-19T11:19:56.268Z,3.13
2018-06-19T11:22:23.384Z,2.40
2018-06-19T11:24:50.554Z,2.43
2018-06-19T11:27:17.848Z,2.90
2018-06-19T11:29:55.086Z,2.80
2018-06-19T11:32:23.100Z,3.00
2018-06-19T11:34:50.285Z,2.77
2018-06-19T11:37:17.470Z,3.00
2018-06-19T11:39:44.698Z,2.80
2018-06-19T11:42:11.917Z,2.77
2018-06-19T11:44:39.082Z,3.00
2018-06-19T11:47:06.281Z,3.00
2018-06-19T11:49:33.407Z,2.87
2018-06-19T11:52:00.540Z,2.60
2018-06-19T11:54:27.759Z,2.87
2018-06-19T11:56:54.999Z,2.70
2018-06-19T11:59:22.072Z,2.70
2018-06-19T12:01:49.343Z,2.80
2018-06-19T12:04:16.485Z,2.37
2018-06-19T12:06:43.672Z,2.60
2018-06-19T12:09:12.041Z,2.70
2018-06-19T12:11:39.856Z,2.90
2018-06-19T12:14:07.062Z,2.27
2018-06-19T12:16:34.433Z,2.73
2018-06-19T12:19:01.651Z,2.77
2018-06-19T12:21:28.822Z,2.60
2018-06-19T12:23:56.083Z,2.73
2018-06-19T12:26:23.240Z,3.10
2018-06-19T12:28:50.376Z,2.53
2018-06-19T12:31:17.878Z,2.70
2018-06-19T12:33:45.088Z,2.70
2018-06-19T12:36:12.369Z,2.60
2018-06-19T12:38:39.621Z,3.03
2018-06-19T12:41:06.828Z,2.90
2018-06-19T12:43:34.108Z,3.07
2018-06-19T12:46:01.353Z,3.07
2018-06-19T12:48:28.476Z,3.00
2018-06-19T12:52:06.413Z,2.87
2018-06-19T12:56:45.457Z,2.63
2018-06-19T12:59:12.966Z,3.10
2018-06-19T13:01:40.115Z,2.80
2018-06-19T13:04:18.715Z,2.73
2018-06-19T13:06:45.989Z,2.70
2018-06-19T13:09:13.329Z,3.00
2018-06-19T13:11:40.514Z,2.47
2018-06-19T13:14:19.229Z,3.33
2018-06-19T13:16:58.288Z,2.80
2018-06-19T13:19:36.920Z,2.60
2018-06-19T13:22:04.097Z,2.60
2018-06-19T13:24:31.241Z,3.03
2018-06-19T13:26:58.449Z,2.57
2018-06-19T13:29:55.462Z,3.03
2018-06-19T13:32:23.057Z,3.10
2018-06-19T13:34:50.489Z,2.93
2018-06-19T13:37:17.848Z,2.87
2018-06-19T13:39:45.533Z,2.90
2018-06-19T13:42:39.034Z,2.97
2018-06-19T13:45:07.744Z,3.10
2018-06-19T13:47:34.945Z,2.83
2018-06-19T13:50:02.149Z,4.07
2018-06-19T13:52:30.074Z,2.90
2018-06-19T13:57:17.890Z,3.27
2018-06-19T13:59:45.061Z,3.07
2018-06-19T14:02:13.132Z,3.20
2018-06-19T14:04:40.295Z,3.20
2018-06-19T14:07:07.428Z,3.20
2018-06-19T14:10:43.877Z,3.30
2018-06-19T14:13:11.154Z,2.87
2018-06-19T14:15:41.683Z,3.10
2018-06-19T14:18:09.052Z,3.00
2018-06-19T14:20:36.545Z,2.87
2018-06-19T14:23:03.843Z,3.27
2018-06-19T14:25:31.305Z,2.70
2018-06-19T14:27:58.555Z,3.80
2018-06-19T14:30:25.947Z,2.67
2018-06-19T14:32:53.396Z,2.73
2018-06-19T14:35:21.496Z,2.67
2018-06-19T14:37:49.572Z,2.80
2018-06-19T14:40:17.268Z,2.83
2018-06-19T14:42:45.537Z,2.63
2018-06-19T14:45:12.994Z,3.20
2018-06-19T14:47:40.666Z,2.90
2018-06-19T14:50:08.382Z,3.20
2018-06-19T14:52:35.691Z,2.90
2018-06-19T14:55:03.539Z,2.80
2018-06-19T14:57:30.936Z,3.20
2018-06-19T14:59:58.159Z,2.73
2018-06-19T15:02:25.584Z,3.00
2018-06-19T15:04:53.389Z,3.37
2018-06-19T15:07:20.790Z,3.00
2018-06-19T15:09:49.155Z,3.13
2018-06-19T15:12:16.987Z,3.33
2018-06-19T15:14:45.758Z,3.27
2018-06-19T15:17:14.097Z,3.23
2018-06-19T15:19:42.503Z,2.87
2018-06-19T15:22:09.949Z,2.87
2018-06-19T15:24:37.239Z,2.47
2018-06-19T15:27:05.996Z,3.07
2018-06-19T15:29:34.025Z,2.53
2018-06-19T15:32:02.270Z,2.47
2018-06-19T15:34:29.772Z,2.30
2018-06-19T15:36:57.339Z,2.30
2018-06-19T15:39:25.252Z,2.47
2018-06-19T15:41:52.891Z,2.57
2018-06-19T15:44:21.225Z,2.97
2018-06-19T15:46:49.360Z,3.20
2018-06-19T15:49:20.884Z,3.10
2018-06-19T15:51:51.074Z,3.00
2018-06-19T15:54:19.825Z,2.80
2018-06-19T15:56:48.034Z,3.00
2018-06-19T15:59:16.621Z,3.27
2018-06-19T16:01:44.908Z,3.17
2018-06-19T16:04:12.940Z,3.03
2018-06-19T16:06:41.013Z,2.87
2018-06-19T16:09:09.671Z,3.47
2018-06-19T16:11:37.597Z,3.07
2018-06-19T16:14:05.108Z,3.77
2018-06-19T16:16:32.368Z,3.43
2018-06-19T16:18:59.782Z,3.70
2018-06-19T16:21:27.169Z,3.47
2018-06-19T16:23:54.720Z,3.30
2018-06-19T16:26:22.340Z,3.63
2018-06-19T16:28:50.925Z,3.53
2018-06-19T16:31:18.324Z,3.30
2018-06-19T16:33:45.799Z,3.30
2018-06-19T16:36:13.189Z,3.20
2018-06-19T16:38:40.644Z,3.33
2018-06-19T16:41:08.061Z,3.00
2018-06-19T16:43:35.391Z,3.27
2018-06-19T16:46:03.106Z,3.07
2018-06-19T16:48:32.447Z,3.10
2018-06-19T16:51:01.423Z,3.13
2018-06-19T16:53:28.610Z,3.17
2018-06-19T16:55:56.514Z,3.40
2018-06-19T16:58:24.809Z,3.10
2018-06-19T17:00:52.171Z,2.83
2018-06-19T17:03:19.375Z,3.27
2018-06-19T17:05:47.138Z,2.70
2018-06-19T17:08:14.500Z,2.90
2018-06-19T17:10:41.697Z,2.77
2018-06-19T17:13:09.133Z,2.77
2018-06-19T17:15:36.638Z,2.70
2018-06-19T17:18:04.449Z,3.13
2018-06-19T17:20:33.214Z,3.10
2018-06-19T17:23:00.838Z,3.00
2018-06-19T17:25:28.193Z,2.87
2018-06-19T17:27:55.399Z,2.90
2018-06-19T17:30:22.534Z,3.37
2018-06-19T17:32:49.853Z,3.30
2018-06-19T17:35:17.337Z,3.20
2018-06-19T17:37:45.084Z,3.40
2018-06-19T17:40:12.234Z,3.33
2018-06-19T17:42:41.872Z,3.47
2018-06-19T17:45:09.020Z,3.00
2018-06-19T17:47:36.138Z,3.27
2018-06-19T17:50:04.536Z,3.37
2018-06-19T17:52:32.027Z,3.10
2018-06-19T17:54:59.561Z,3.60
2018-06-19T17:57:27.225Z,3.40
2018-06-19T17:59:54.632Z,3.10
2018-06-19T18:02:22.153Z,3.30
2018-06-19T18:04:49.400Z,3.20
2018-06-19T18:07:16.655Z,3.60
2018-06-19T18:09:43.841Z,3.70
2018-06-19T18:12:11.008Z,3.33
2018-06-19T18:14:38.158Z,3.20
2018-06-19T18:17:05.300Z,3.47
2018-06-19T18:19:36.244Z,2.87
2018-06-19T18:22:03.625Z,3.13
2018-06-19T18:24:31.992Z,3.10
2018-06-19T18:26:59.977Z,3.03
2018-06-19T18:29:27.108Z,2.90
2018-06-19T18:31:55.287Z,2.80
2018-06-19T18:34:22.653Z,2.77
2018-06-19T18:36:50.195Z,2.70
2018-06-19T18:39:17.877Z,2.70
2018-06-19T18:41:46.146Z,2.83
2018-06-19T18:44:13.302Z,2.60
2018-06-19T18:46:40.489Z,2.73
2018-06-19T18:49:14.047Z,2.70
2018-06-19T18:51:41.168Z,2.83
2018-06-19T18:54:08.372Z,2.97
2018-06-19T18:56:35.507Z,3.00
2018-06-19T18:59:02.995Z,2.83
2018-06-19T19:01:30.757Z,2.40
2018-06-19T19:03:58.483Z,2.57
2018-06-19T19:06:25.676Z,2.70
2018-06-19T19:08:52.919Z,2.70
2018-06-19T19:11:21.253Z,2.57
2018-06-19T19:13:49.723Z,2.83
2018-06-19T19:16:23.627Z,2.53
2018-06-19T19:18:56.971Z,2.90
2018-06-19T19:21:24.653Z,2.80
2018-06-19T19:23:53.368Z,3.33
2018-06-19T19:26:26.484Z,2.90
2018-06-19T19:29:00.231Z,2.80
2018-06-19T19:31:27.578Z,2.97
2018-06-19T19:33:55.472Z,8.00
2018-06-19T19:36:30.322Z,6.13
2018-06-19T19:39:03.714Z,3.77
2018-06-19T19:41:32.090Z,3.77
2018-06-19T19:44:00.433Z,3.20
2018-06-19T19:46:34.454Z,3.30
2018-06-19T19:49:01.603Z,3.40
2018-06-19T19:51:29.169Z,4.13
2018-06-19T19:53:56.911Z,3.40
2018-06-19T19:56:30.194Z,3.83
2018-06-19T19:58:57.712Z,3.63
2018-06-19T20:01:25.076Z,3.43
2018-06-19T20:03:52.619Z,3.50
2018-06-19T20:06:20.162Z,3.60
2018-06-19T20:08:47.396Z,3.73
2018-06-19T20:11:15.667Z,3.80
2018-06-19T20:13:43.263Z,4.13
2018-06-19T20:16:10.691Z,3.90
2018-06-19T20:18:38.357Z,3.73
2018-06-19T20:21:05.635Z,4.43
2018-06-19T20:23:32.888Z,4.00
2018-06-19T20:26:00.052Z,4.03
2018-06-19T20:28:27.272Z,4.47
2018-06-19T20:30:54.420Z,4.10
2018-06-19T20:33:21.559Z,4.47
2018-06-19T20:35:48.839Z,4.63
2018-06-19T20:38:16.054Z,4.50
2018-06-19T20:40:43.712Z,7.40
2018-06-19T20:43:11.349Z,7.07
2018-06-19T20:45:39.137Z,5.63
2018-06-19T20:48:07.134Z,5.17
2018-06-19T20:50:34.703Z,5.03
2018-06-19T20:53:01.812Z,4.77
2018-06-19T20:55:28.935Z,5.33
2018-06-19T20:57:56.085Z,5.30
2018-06-19T21:00:23.288Z,5.07
2018-06-19T21:02:50.399Z,5.00
2018-06-19T21:05:17.580Z,5.20
2018-06-19T21:07:45.038Z,5.27
2018-06-19T21:10:13.014Z,5.30
2018-06-19T21:12:41.252Z,5.33
2018-06-19T21:15:09.420Z,5.30
2018-06-19T21:17:37.606Z,5.97
2018-06-19T21:20:04.870Z,5.70
2018-06-19T21:22:31.982Z,5.80
2018-06-19T21:24:59.281Z,5.90
2018-06-19T21:27:26.444Z,5.70
2018-06-19T21:29:53.709Z,5.60
2018-06-19T21:32:21.208Z,6.27
2018-06-19T21:34:48.893Z,6.47
2018-06-19T21:37:17.205Z,5.73
2018-06-19T21:39:45.651Z,6.10
2018-06-19T21:42:13.263Z,6.47
2018-06-19T21:44:40.488Z,6.50
2018-06-19T21:47:07.604Z,6.27
2018-06-19T21:49:35.027Z,6.40
2018-06-19T21:52:02.162Z,6.50
2018-06-19T21:54:29.273Z,6.60
2018-06-19T21:56:56.883Z,6.60
2018-06-19T21:59:24.044Z,6.60
2018-06-19T22:01:51.520Z,6.30
2018-06-19T22:04:19.237Z,6.60
2018-06-19T22:06:47.213Z,6.20
2018-06-19T22:09:15.213Z,6.30
2018-06-19T22:11:42.677Z,6.77
2018-06-19T22:14:09.952Z,6.70
2018-06-19T22:16:37.088Z,6.50
2018-06-19T22:19:04.313Z,7.50
2018-06-19T22:21:31.421Z,6.80
2018-06-19T22:23:58.532Z,7.00
2018-06-19T22:26:25.731Z,6.50
2018-06-19T22:28:53.089Z,6.80
2018-06-19T22:31:20.504Z,7.37
2018-06-19T22:33:48.024Z,6.93
2018-06-19T22:36:16.176Z,7.30
2018-06-19T22:38:44.775Z,8.10
2018-06-19T22:41:11.957Z,7.40
2018-06-19T22:43:39.110Z,7.77
2018-06-19T22:46:06.236Z,7.50
2018-06-19T22:48:33.483Z,7.23
2018-06-19T22:51:00.593Z,7.90
2018-06-19T22:53:27.713Z,7.70
2018-06-19T22:55:54.884Z,7.30
2018-06-19T22:58:22.140Z,8.30
2018-06-19T23:00:49.609Z,7.90
2018-06-19T23:03:17.587Z,7.80
2018-06-19T23:05:45.173Z,7.87
2018-06-19T23:08:12.767Z,8.20
2018-06-19T23:10:39.911Z,8.00
2018-06-19T23:13:07.082Z,7.63
2018-06-19T23:15:34.215Z,8.23
2018-06-19T23:18:01.377Z,8.90
2018-06-19T23:20:28.471Z,8.70
2018-06-19T23:22:55.571Z,8.10
2018-06-19T23:25:22.928Z,8.33
2018-06-19T23:27:50.272Z,8.10
2018-06-19T23:30:18.023Z,8.80
2018-06-19T23:32:45.940Z,9.17
2018-06-19T23:35:13.559Z,7.83
2018-06-19T23:37:41.466Z,8.33
2018-06-19T23:40:08.700Z,8.73
2018-06-19T23:42:35.839Z,8.93
2018-06-19T23:45:03.781Z,8.50
2018-06-19T23:47:30.931Z,8.87
2018-06-19T23:49:58.179Z,8.90
2018-06-19T23:52:25.339Z,8.53
2018-06-19T23:54:52.647Z,9.10
2018-06-19T23:57:20.083Z,10.00
2018-06-19T23:59:47.366Z,10.97
